createdAt,value
2018-04-16T00:00:54.219Z,2.27
2018-04-16T00:03:22.476Z,2.10
2018-04-16T00:05:51.011Z,2.17
2018-04-16T00:08:19.287Z,2.47
2018-04-16T00:10:47.648Z,2.80
2018-04-16T00:13:15.913Z,2.80
2018-04-16T00:15:44.177Z,3.10
2018-04-16T00:18:12.571Z,3.60
2018-04-16T00:20:40.831Z,2.70
2018-04-16T00:23:09.084Z,3.30
2018-04-16T00:25:38.112Z,2.97
2018-04-16T00:28:06.361Z,4.07
2018-04-16T00:30:34.635Z,3.87
2018-04-16T00:33:09.373Z,3.97
2018-04-16T00:35:43.633Z,3.83
2018-04-16T00:38:17.717Z,3.20
2018-04-16T00:40:51.855Z,3.47
2018-04-16T00:43:25.870Z,3.67
2018-04-16T00:46:00.091Z,3.87
2018-04-16T00:48:34.052Z,4.20
2018-04-16T00:51:08.210Z,3.43
2018-04-16T00:53:54.203Z,3.40
2018-04-16T00:56:28.435Z,5.00
2018-04-16T00:59:02.483Z,4.43
2018-04-16T01:01:36.524Z,3.87
2018-04-16T01:04:10.493Z,4.40
2018-04-16T01:06:44.543Z,3.77
2018-04-16T01:09:18.463Z,3.77
2018-04-16T01:11:52.682Z,3.50
2018-04-16T01:14:26.544Z,4.00
2018-04-16T01:17:00.812Z,3.70
2018-04-16T01:19:34.894Z,3.80
2018-04-16T01:22:09.034Z,3.23
2018-04-16T01:24:43.102Z,2.90
2018-04-16T01:27:17.256Z,3.40
2018-04-16T01:32:57.121Z,3.63
2018-04-16T01:35:31.107Z,3.70
2018-04-16T01:38:05.247Z,3.33
2018-04-16T01:40:39.259Z,3.33
2018-04-16T01:43:13.373Z,2.83
2018-04-16T01:45:47.364Z,3.40
2018-04-16T01:48:21.605Z,2.93
2018-04-16T01:50:55.600Z,2.80
2018-04-16T01:53:29.635Z,3.30
2018-04-16T01:56:03.703Z,3.13
2018-04-16T01:58:37.772Z,4.63
2018-04-16T18:58:06.572Z,14.50
2018-04-16T19:00:34.904Z,12.87
2018-04-16T19:06:03.102Z,12.67
2018-04-16T19:08:31.725Z,12.77
2018-04-16T19:11:00.887Z,13.43
2018-04-16T19:13:30.737Z,12.83
2018-04-16T19:15:59.102Z,12.33
2018-04-16T19:18:27.309Z,13.50
2018-04-16T19:21:01.353Z,13.00
2018-04-16T19:23:29.839Z,12.53
2018-04-16T19:25:58.122Z,12.73
2018-04-16T19:28:27.289Z,12.00
2018-04-16T19:30:55.558Z,13.83
2018-04-16T19:33:29.841Z,12.63
2018-04-16T19:35:58.121Z,12.67
2018-04-16T19:38:26.396Z,12.77
2018-04-16T19:40:54.688Z,11.70
2018-04-16T19:43:22.984Z,14.87
2018-04-16T19:45:51.261Z,13.60
2018-04-16T19:48:20.301Z,15.10
2018-04-16T19:50:49.344Z,14.20
2018-04-16T19:53:17.606Z,12.77
2018-04-16T19:55:51.616Z,13.93
2018-04-16T19:58:22.378Z,15.07
2018-04-16T20:00:50.667Z,15.70
2018-04-16T20:06:31.256Z,14.90
2018-04-16T20:08:59.729Z,13.67
2018-04-16T20:11:28.085Z,19.90
2018-04-16T20:13:56.403Z,20.03
2018-04-16T20:16:25.454Z,16.30
2018-04-16T20:18:53.759Z,16.03
2018-04-16T20:21:22.091Z,13.67
2018-04-16T20:23:50.447Z,14.43
2018-04-16T20:26:19.571Z,13.80
2018-04-16T20:28:47.978Z,14.83
2018-04-16T20:31:16.349Z,14.43
2018-04-16T20:33:44.717Z,15.63
2018-04-16T20:36:13.025Z,15.30
2018-04-16T20:38:41.450Z,15.43
2018-04-16T20:41:09.765Z,15.73
2018-04-16T20:43:38.242Z,16.20
2018-04-16T20:46:06.525Z,15.70
2018-04-16T20:48:34.792Z,14.50
2018-04-16T20:51:03.068Z,14.13
2018-04-16T20:53:31.358Z,14.80
2018-04-16T20:55:59.641Z,15.63
2018-04-16T20:58:27.920Z,16.37
2018-04-16T21:00:56.204Z,14.80
2018-04-16T21:03:24.508Z,14.60
2018-04-16T21:05:53.542Z,14.37
2018-04-16T21:08:21.889Z,14.40
2018-04-16T21:10:50.196Z,14.40
2018-04-16T21:13:18.580Z,14.33
2018-04-16T21:15:46.885Z,13.40
2018-04-16T21:18:15.191Z,14.57
2018-04-16T21:20:43.518Z,14.57
2018-04-16T21:23:11.828Z,15.40
2018-04-16T21:25:40.868Z,16.27
2018-04-16T21:28:09.207Z,14.00
2018-04-16T21:30:38.317Z,13.60
2018-04-16T21:33:07.404Z,13.67
2018-04-16T21:35:35.690Z,16.07
2018-04-16T21:38:03.988Z,14.80
2018-04-16T21:40:32.255Z,14.10
2018-04-16T21:43:00.537Z,13.80
2018-04-16T21:45:28.832Z,14.17
2018-04-16T21:47:57.121Z,16.10
2018-04-16T21:50:25.398Z,14.30
2018-04-16T21:52:53.797Z,16.00
2018-04-16T21:55:22.161Z,14.33
2018-04-16T21:57:51.279Z,14.37
2018-04-16T22:00:20.318Z,15.53
2018-04-16T22:02:48.610Z,15.17
2018-04-16T22:05:16.889Z,13.97
2018-04-16T22:07:45.208Z,13.90
2018-04-16T22:10:13.487Z,14.30
2018-04-16T22:12:41.782Z,15.63
2018-04-16T22:15:10.063Z,14.27
2018-04-16T22:17:38.377Z,14.53
2018-04-16T22:20:06.650Z,14.10
2018-04-16T22:22:35.027Z,15.13
2018-04-16T22:25:03.295Z,14.70
2018-04-16T22:27:31.579Z,14.50
2018-04-16T22:29:59.952Z,15.70
2018-04-16T22:32:28.238Z,17.00
2018-04-16T22:34:56.555Z,14.10
2018-04-16T22:37:25.713Z,14.23
2018-04-16T22:39:53.987Z,14.33
2018-04-16T22:42:22.263Z,15.20
2018-04-16T22:44:50.517Z,14.80
2018-04-16T22:47:18.789Z,15.17
2018-04-16T22:49:47.123Z,13.43
2018-04-16T22:52:16.355Z,15.10
2018-04-16T22:54:45.439Z,14.07
2018-04-16T22:57:13.755Z,14.80
2018-04-16T22:59:42.025Z,14.90
2018-04-16T23:02:10.308Z,15.37
2018-04-16T23:04:38.582Z,15.00
2018-04-16T23:07:06.860Z,14.43
2018-04-16T23:09:35.163Z,13.20
2018-04-16T23:12:04.211Z,14.23
2018-04-16T23:14:32.492Z,12.93
2018-04-16T23:17:00.800Z,13.60
2018-04-16T23:19:29.065Z,13.07
2018-04-16T23:21:57.341Z,14.90
2018-04-16T23:24:25.631Z,14.00
2018-04-16T23:26:53.892Z,13.93
2018-04-16T23:29:22.168Z,14.20
2018-04-16T23:31:50.444Z,14.73
2018-04-16T23:34:18.734Z,15.93
2018-04-16T23:36:47.008Z,13.10
2018-04-16T23:39:15.297Z,13.73
2018-04-16T23:41:44.355Z,14.50
2018-04-16T23:44:13.412Z,14.63
2018-04-16T23:46:42.448Z,16.20
2018-04-16T23:49:10.731Z,13.97
2018-04-16T23:51:38.997Z,15.20
2018-04-16T23:54:07.284Z,15.10
2018-04-16T23:56:35.575Z,14.80
2018-04-16T23:59:03.873Z,16.47
